ダッカ の空港の天気 - METARとTAF

シャージャラル国際空港(ダッカ) ( VGHS / DAC ) - バングラデシュ ダッカ
飛行場実況気象(Metar)
観測時間07/28 18:30 BDT (07/28 12:30 UTC)
風向・風速東 3m/s
視程4000m
天気現象煙霧
全天の4割程度の雲 雲底高度 370m
全天の8割程度の雲 雲底高度 3050m
気温32℃
湿度67%
気圧1002hPa
METARVGHS 281230Z 09006KT 4000 HZ SCT012 BKN100 32/25 Q1002 NOSIG
過去の天気等 Google飛行場航空写真 Wunderground天気予報

過去48時間のMETAR

飛行場予報(TAF)
発表時間: 7/28 17:00 BDT (7/28 11:00 UTC)
予報対象時間: 28日18時 BDT ~ 30日0時 BDT
風向・風速南 5m/s
視程4,000m
天気現象煙霧
全天の4割程度の雲 雲底高度 460m
全天の8割程度の雲 雲底高度 3,050m
28日18時 BDT ~ 28日22時 BDT に一時的に
風向・風速南南西 13m/s
視程2,000m
29日2時 BDT ~ 29日4時 BDT に徐々に
風向・風速南東 3m/s
視程3,500m
天気現象煙霧
全天の4割程度の雲 雲底高度 460m
全天の8割程度の雲 雲底高度 3,050m
29日4時 BDT ~ 29日14時 BDT に一時的に
風向・風速南 13m/s
視程2,000m
29日15時 BDT ~ 29日17時 BDT に徐々に
風向・風速南 5m/s
視程4,000m
天気現象煙霧
全天の4割程度の雲 雲底高度 460m
全天の8割程度の雲 雲底高度 3,050m
TAF VGHS 281100Z 2812/2918 17010KT 4000 HZ SCT015 BKN100
TEMPO 2812/2816 20025KT 2000 RA/TSRA BKN007 FEW025CB OVC090
BECMG 2820/2822 13006KT 3500 HZ SCT015 BKN100
TEMPO 2822/2908 18025KT 2000 RA/TSRA BKN007 FEW025CB OVC090
BECMG 2909/2911 18010KT 4000 HZ SCT015 BKN100